Time;durP1;ratioP1;P1;durP2;ratioP2;P2;SDS_P1;SDS_P2;PMS_P1;PMS_P2;Temp;Humidity;BMP_temperature;BMP_pressure;BME280_temperature;BME280_humidity;BME280_pressure;Samples;Min_cycle;Max_cycle;Signal;HPM_P1;HPM_P2
2022/10/11 00:00:26;;;;;;;;;;;;;;;;;;2116071;28;19958;-55
2022/10/11 00:01:27;;;;;;;;;;;;;;;;;;2116214;28;20271;-56
2022/10/11 00:02:28;;;;;;;;;;;;;;;;;;2115917;28;20334;-55
2022/10/11 00:03:29;;;;;;;;;;;;;;;;;;2116073;28;20388;-55
2022/10/11 00:04:30;;;;;;;;;;;;;;;;;;2116258;28;20022;-44
2022/10/11 00:05:30;;;;;;;;;;;;;;;;;;2116161;28;19927;-44
2022/10/11 00:06:31;;;;;;;;;;;;;;;;;;2116020;28;20030;-44
2022/10/11 00:07:32;;;;;;;;;;;;;;;;;;2116021;28;19919;-44
2022/10/11 00:08:33;;;;;;;;;;;;;;;;;;2116083;28;19924;-44
2022/10/11 00:09:34;;;;;;;;;;;;;;;;;;2116143;28;19966;-44
2022/10/11 00:10:34;;;;;;;;;;;;;;;;;;2116150;28;19942;-44
2022/10/11 00:11:35;;;;;;;;;;;;;;;;;;2115900;28;19919;-44
2022/10/11 00:12:36;;;;;;;;;;;;;;;;;;2115987;28;19970;-44
2022/10/11 00:13:37;;;;;;;;;;;;;;;;;;2116020;28;19920;-44
2022/10/11 00:14:38;;;;;;;;;;;;;;;;;;2116095;28;20459;-44
2022/10/11 00:15:38;;;;;;;;;;;;;;;;;;2116112;28;20282;-44
2022/10/11 00:16:43;;;;;;;;;;;;;;;;;;2115873;28;19927;-44
2022/10/11 00:17:43;;;;;;;;;;;;;;;;;;2115995;28;19920;-44
2022/10/11 00:18:44;;;;;;;;;;;;;;;;;;2115946;28;19941;-44
2022/10/11 00:19:45;;;;;;;;;;;;;;;;;;2116102;28;20383;-44
2022/10/11 00:20:46;;;;;;;;;;;;;;;;;;2115891;28;20352;-44
2022/10/11 00:21:47;;;;;;;;;;;;;;;;;;2115857;28;19920;-44
2022/10/11 00:22:48;;;;;;;;;;;;;;;;;;2115840;28;19972;-44
2022/10/11 00:23:49;;;;;;;;;;;;;;;;;;2116020;28;19919;-44
2022/10/11 00:24:51;;;;;;;;;;;;;;;;;;2115866;28;19931;-44
2022/10/11 00:25:52;;;;;;;;;;;;;;;;;;2115828;28;19923;-44
2022/10/11 00:26:53;;;;;;;;;;;;;;;;;;2115866;28;20292;-44
2022/10/11 00:27:54;;;;;;;;;;;;;;;;;;2115888;28;19926;-44
2022/10/11 00:28:54;;;;;;;;;;;;;;;;;;2115810;28;20015;-44
2022/10/11 00:29:55;;;;;;;;;;;;;;;;;;2116037;28;19970;-44
2022/10/11 00:30:56;;;;;;;;;;;;;;;;;;2116039;28;19981;-44
2022/10/11 00:31:57;;;;;;;;;;;;;;;;;;2115751;28;19923;-44
2022/10/11 00:32:58;;;;;;;;;;;;;;;;;;2115850;28;20356;-44
2022/10/11 00:33:58;;;;;;;;;;;;;;;;;;2115886;28;19927;-44
2022/10/11 00:35:05;;;;;;;;;;;;;;;;;;2115837;28;19924;-44
2022/10/11 00:36:06;;;;;;;;;;;;;;;;;;2115941;28;19927;-44
2022/10/11 00:37:07;;;;;;;;;;;;;;;;;;2115949;28;19919;-44
2022/10/11 00:38:08;;;;;;;;;;;;;;;;;;2115829;28;19920;-44
2022/10/11 00:39:08;;;;;;;;;;;;;;;;;;2115855;28;19920;-44
2022/10/11 00:40:09;;;;;;;;;;;;;;;;;;2115745;28;19924;-44
2022/10/11 00:41:10;;;;;;;;;;;;;;;;;;2115771;28;19919;-44
2022/10/11 00:42:11;;;;;;;;;;;;;;;;;;2115698;28;19920;-44
2022/10/11 00:43:12;;;;;;;;;;;;;;;;;;2115634;28;20398;-44
2022/10/11 00:44:13;;;;;;;;;;;;;;;;;;2115296;28;20716;-44
2022/10/11 00:45:13;;;;;;;;;;;;;;;;;;2115738;28;19927;-44
2022/10/11 00:46:14;;;;;;;;;;;;;;;;;;2115918;28;20010;-44
2022/10/11 00:47:15;;;;;;;;;;;;;;;;;;2115703;28;20283;-44
2022/10/11 00:48:16;;;;;;;;;;;;;;;;;;2115765;28;19927;-44
2022/10/11 00:49:17;;;;;;;;;;;;;;;;;;2115834;28;19926;-44
2022/10/11 00:50:18;;;;;;;;;;;;;;;;;;2115978;28;20170;-44
2022/10/11 00:51:19;;;;;;;;;;;;;;;;;;2115707;28;20001;-44
2022/10/11 00:52:19;;;;;;;;;;;;;;;;;;2115749;28;19924;-44
2022/10/11 00:53:20;;;;;;;;;;;;;;;;;;2115704;28;19923;-44
2022/10/11 00:54:21;;;;;;;;;;;;;;;;;;2115708;28;19972;-44
2022/10/11 00:55:22;;;;;;;;;;;;;;;;;;2115831;28;20355;-44
2022/10/11 00:56:23;;;;;;;;;;;;;;;;;;2115671;28;20037;-44
2022/10/11 00:57:24;;;;;;;;;;;;;;;;;;2115693;28;19920;-44
2022/10/11 00:58:24;;;;;;;;;;;;;;;;;;2115798;28;20165;-44
2022/10/11 00:59:25;;;;;;;;;;;;;;;;;;2115831;28;19919;-44
2022/10/11 01:00:26;;;;;;;;;;;;;;;;;;2115760;28;19926;-44
2022/10/11 01:01:27;;;;;;;;;;;;;;;;;;2115690;28;19966;-44
2022/10/11 01:02:29;;;;;;;;;;;;;;;;;;2115796;28;19926;-44
2022/10/11 01:03:30;;;;;;;;;;;;;;;;;;2115624;28;19924;-44
2022/10/11 01:04:30;;;;;;;;;;;;;;;;;;2115792;28;19920;-44
2022/10/11 01:05:31;;;;;;;;;;;;;;;;;;2115595;28;19923;-44
2022/10/11 01:06:32;;;;;;;;;;;;;;;;;;2115675;28;19969;-44
2022/10/11 01:07:33;;;;;;;;;;;;;;;;;;2115642;28;19919;-44
2022/10/11 01:08:34;;;;;;;;;;;;;;;;;;2115590;28;19926;-44
2022/10/11 01:09:35;;;;;;;;;;;;;;;;;;2115761;28;19919;-44
2022/10/11 01:10:35;;;;;;;;;;;;;;;;;;2115774;28;19981;-44
2022/10/11 01:11:36;;;;;;;;;;;;;;;;;;2115450;28;19973;-44
2022/10/11 01:12:37;;;;;;;;;;;;;;;;;;2115562;28;19967;-44
2022/10/11 01:13:38;;;;;;;;;;;;;;;;;;2115726;28;20427;-44
2022/10/11 01:14:38;;;;;;;;;;;;;;;;;;2115547;28;20030;-44
2022/10/11 01:15:39;;;;;;;;;;;;;;;;;;2115585;28;19988;-44
2022/10/11 01:16:40;;;;;;;;;;;;;;;;;;2115437;28;19924;-44
2022/10/11 01:17:41;;;;;;;;;;;;;;;;;;2115536;28;19919;-44
2022/10/11 01:18:42;;;;;;;;;;;;;;;;;;2115634;28;20368;-44
2022/10/11 01:19:43;;;;;;;;;;;;;;;;;;2115528;28;19919;-44
2022/10/11 01:20:43;;;;;;;;;;;;;;;;;;2115523;28;19919;-44
2022/10/11 01:21:44;;;;;;;;;;;;;;;;;;2115587;28;20013;-44
2022/10/11 01:22:45;;;;;;;;;;;;;;;;;;2115583;28;20394;-44
2022/10/11 01:23:45;;;;;;;;;;;;;;;;;;2115476;28;20353;-44
2022/10/11 01:24:46;;;;;;;;;;;;;;;;;;2115497;28;19959;-44
2022/10/11 01:25:47;;;;;;;;;;;;;;;;;;2115560;28;19926;-44
2022/10/11 01:26:48;;;;;;;;;;;;;;;;;;2115510;28;19931;-45
2022/10/11 01:27:49;;;;;;;;;;;;;;;;;;2115421;28;19920;-44
2022/10/11 01:28:50;;;;;;;;;;;;;;;;;;2115599;28;19923;-44
2022/10/11 01:29:50;;;;;;;;;;;;;;;;;;2115510;28;20002;-44
2022/10/11 01:30:51;;;;;;;;;;;;;;;;;;2115574;28;19920;-44
2022/10/11 01:31:52;;;;;;;;;;;;;;;;;;2115464;28;19920;-44
2022/10/11 01:32:53;;;;;;;;;;;;;;;;;;2115416;28;19972;-44
2022/10/11 01:33:53;;;;;;;;;;;;;;;;;;2115471;28;19920;-44
2022/10/11 01:34:55;;;;;;;;;;;;;;;;;;2115407;28;19920;-44
2022/10/11 01:35:56;;;;;;;;;;;;;;;;;;2115429;28;20387;-44
2022/10/11 01:36:57;;;;;;;;;;;;;;;;;;2115294;28;19954;-44
2022/10/11 01:37:57;;;;;;;;;;;;;;;;;;2115427;28;20387;-44
2022/10/11 01:38:58;;;;;;;;;;;;;;;;;;2115370;28;19969;-44
2022/10/11 01:39:59;;;;;;;;;;;;;;;;;;2115421;28;20518;-44
2022/10/11 01:41:00;;;;;;;;;;;;;;;;;;2115481;28;20040;-44
2022/10/11 01:42:00;;;;;;;;;;;;;;;;;;2115408;28;20372;-44
2022/10/11 01:43:01;;;;;;;;;;;;;;;;;;2115324;28;19920;-45
2022/10/11 01:44:03;;;;;;;;;;;;;;;;;;2115323;28;20010;-44
2022/10/11 01:45:04;;;;;;;;;;;;;;;;;;2115561;28;20395;-44
2022/10/11 01:46:05;;;;;;;;;;;;;;;;;;2115395;28;19970;-44
2022/10/11 01:47:06;;;;;;;;;;;;;;;;;;2115401;28;19920;-44
2022/10/11 01:48:07;;;;;;;;;;;;;;;;;;2115416;28;19927;-44
2022/10/11 01:49:08;;;;;;;;;;;;;;;;;;2115400;28;19919;-44
2022/10/11 01:50:08;;;;;;;;;;;;;;;;;;2115298;28;20026;-44
2022/10/11 01:51:09;;;;;;;;;;;;;;;;;;2115440;28;19960;-44
2022/10/11 01:52:10;;;;;;;;;;;;;;;;;;2115227;28;20276;-45
2022/10/11 01:53:11;;;;;;;;;;;;;;;;;;2115403;28;19920;-44
2022/10/11 01:54:12;;;;;;;;;;;;;;;;;;2115479;28;20261;-44
2022/10/11 01:55:13;;;;;;;;;;;;;;;;;;2115288;28;19923;-44
2022/10/11 01:56:14;;;;;;;;;;;;;;;;;;2114276;28;19988;-44
2022/10/11 01:57:14;;;;;;;;;;;;;;;;;;2115275;28;20152;-45
2022/10/11 01:58:15;;;;;;;;;;;;;;;;;;2115303;28;20014;-44
2022/10/11 01:59:16;;;;;;;;;;;;;;;;;;2115212;28;19920;-44
2022/10/11 02:00:17;;;;;;;;;;;;;;;;;;2115420;28;19920;-44
2022/10/11 02:01:17;;;;;;;;;;;;;;;;;;2115283;28;20361;-44
2022/10/11 02:02:18;;;;;;;;;;;;;;;;;;2115255;28;19919;-44
2022/10/11 02:03:19;;;;;;;;;;;;;;;;;;2115291;28;19923;-44
2022/10/11 02:04:20;;;;;;;;;;;;;;;;;;2115225;28;19919;-44
2022/10/11 02:05:21;;;;;;;;;;;;;;;;;;2115372;28;20345;-44
2022/10/11 02:06:22;;;;;;;;;;;;;;;;;;2115258;28;20011;-44
2022/10/11 02:07:22;;;;;;;;;;;;;;;;;;2115148;28;20334;-44
2022/10/11 02:08:23;;;;;;;;;;;;;;;;;;2115227;28;19976;-45
2022/10/11 02:09:24;;;;;;;;;;;;;;;;;;2115276;28;19920;-44
2022/10/11 02:10:25;;;;;;;;;;;;;;;;;;2115317;28;19935;-44
2022/10/11 02:11:26;;;;;;;;;;;;;;;;;;2115303;28;19920;-44
2022/10/11 02:12:27;;;;;;;;;;;;;;;;;;2115042;28;19946;-44
2022/10/11 02:13:27;;;;;;;;;;;;;;;;;;2115225;28;19965;-44
2022/10/11 02:14:28;;;;;;;;;;;;;;;;;;2115294;28;19968;-44
2022/10/11 02:15:29;;;;;;;;;;;;;;;;;;2115193;28;20598;-44
2022/10/11 02:16:30;;;;;;;;;;;;;;;;;;2115076;28;19962;-44
2022/10/11 02:17:30;;;;;;;;;;;;;;;;;;2115128;28;19920;-44
2022/10/11 02:18:31;;;;;;;;;;;;;;;;;;2115168;28;19928;-44
2022/10/11 02:19:32;;;;;;;;;;;;;;;;;;2115109;28;19920;-44
2022/10/11 02:20:33;;;;;;;;;;;;;;;;;;2115246;28;19920;-44
2022/10/11 02:21:34;;;;;;;;;;;;;;;;;;2115113;28;19920;-44
2022/10/11 02:22:35;;;;;;;;;;;;;;;;;;2115255;28;20366;-44
2022/10/11 02:23:35;;;;;;;;;;;;;;;;;;2115008;28;19962;-44
2022/10/11 02:24:36;;;;;;;;;;;;;;;;;;2115128;28;19920;-44
2022/10/11 02:25:37;;;;;;;;;;;;;;;;;;2115278;28;20009;-44
2022/10/11 02:26:38;;;;;;;;;;;;;;;;;;2115223;28;19946;-44
2022/10/11 02:27:39;;;;;;;;;;;;;;;;;;2115247;28;19920;-45
2022/10/11 02:28:40;;;;;;;;;;;;;;;;;;2115074;28;20005;-44
2022/10/11 02:29:41;;;;;;;;;;;;;;;;;;2115193;28;19924;-44
2022/10/11 02:30:42;;;;;;;;;;;;;;;;;;2115126;28;19928;-44
2022/10/11 02:31:42;;;;;;;;;;;;;;;;;;2115116;28;19946;-44
2022/10/11 02:32:43;;;;;;;;;;;;;;;;;;2115000;28;20014;-44
2022/10/11 02:33:44;;;;;;;;;;;;;;;;;;2115080;28;19954;-44
2022/10/11 02:34:45;;;;;;;;;;;;;;;;;;2115205;28;19939;-44
2022/10/11 02:35:46;;;;;;;;;;;;;;;;;;2115032;28;20403;-44
2022/10/11 02:36:47;;;;;;;;;;;;;;;;;;2115125;28;19920;-44
2022/10/11 02:37:47;;;;;;;;;;;;;;;;;;2115097;28;19920;-44
2022/10/11 02:38:48;;;;;;;;;;;;;;;;;;2115136;28;19978;-44
2022/10/11 02:39:49;;;;;;;;;;;;;;;;;;2115088;28;19943;-44
2022/10/11 02:40:50;;;;;;;;;;;;;;;;;;2115026;28;19923;-44
2022/10/11 02:41:51;;;;;;;;;;;;;;;;;;2114880;28;19927;-44
2022/10/11 02:42:52;;;;;;;;;;;;;;;;;;2115071;28;19968;-44
2022/10/11 02:43:52;;;;;;;;;;;;;;;;;;2114943;28;19926;-44
2022/10/11 02:44:58;;;;;;;;;;;;;;;;;;2114951;28;19926;-44
2022/10/11 02:45:59;;;;;;;;;;;;;;;;;;2115150;28;19919;-44
2022/10/11 02:47:00;;;;;;;;;;;;;;;;;;2114868;28;19971;-44
2022/10/11 02:48:00;;;;;;;;;;;;;;;;;;2114941;28;19920;-45
2022/10/11 02:49:01;;;;;;;;;;;;;;;;;;2114982;28;19970;-45
2022/10/11 02:50:02;;;;;;;;;;;;;;;;;;2115140;28;20341;-44
2022/10/11 02:51:03;;;;;;;;;;;;;;;;;;2114917;28;20283;-44
2022/10/11 02:52:04;;;;;;;;;;;;;;;;;;2114933;28;20261;-44
2022/10/11 02:53:05;;;;;;;;;;;;;;;;;;2114875;28;19969;-44
2022/10/11 02:54:05;;;;;;;;;;;;;;;;;;2115039;28;19919;-44
2022/10/11 02:55:06;;;;;;;;;;;;;;;;;;2115069;28;20391;-44
2022/10/11 02:56:07;;;;;;;;;;;;;;;;;;2114957;28;19926;-44
2022/10/11 02:57:08;;;;;;;;;;;;;;;;;;2114845;28;20261;-44
2022/10/11 02:58:09;;;;;;;;;;;;;;;;;;2114887;28;19992;-44
2022/10/11 02:59:10;;;;;;;;;;;;;;;;;;2114914;28;20008;-44
2022/10/11 03:00:11;;;;;;;;;;;;;;;;;;2114873;28;19949;-44
2022/10/11 03:01:12;;;;;;;;;;;;;;;;;;2115016;28;19920;-44
2022/10/11 03:02:12;;;;;;;;;;;;;;;;;;2114778;28;19987;-45
2022/10/11 03:03:13;;;;;;;;;;;;;;;;;;2114907;28;20012;-44
2022/10/11 03:04:14;;;;;;;;;;;;;;;;;;2114975;28;20379;-44
2022/10/11 03:05:15;;;;;;;;;;;;;;;;;;2115155;28;20276;-44
2022/10/11 03:06:16;;;;;;;;;;;;;;;;;;2114918;28;19945;-44
2022/10/11 03:07:16;;;;;;;;;;;;;;;;;;2114531;28;19959;-44
2022/10/11 03:08:17;;;;;;;;;;;;;;;;;;2114904;28;19959;-44
2022/10/11 03:09:18;;;;;;;;;;;;;;;;;;2114847;28;19927;-44
2022/10/11 03:10:19;;;;;;;;;;;;;;;;;;2114986;28;19926;-44
2022/10/11 03:11:20;;;;;;;;;;;;;;;;;;2114880;28;19942;-44
2022/10/11 03:12:20;;;;;;;;;;;;;;;;;;2114911;28;20295;-44
2022/10/11 03:13:21;;;;;;;;;;;;;;;;;;2114884;28;20308;-44
2022/10/11 03:14:22;;;;;;;;;;;;;;;;;;2114803;28;19926;-44
2022/10/11 03:15:23;;;;;;;;;;;;;;;;;;2114958;28;19998;-44
2022/10/11 03:16:24;;;;;;;;;;;;;;;;;;2114854;28;20295;-44
2022/10/11 03:17:26;;;;;;;;;;;;;;;;;;2114690;28;19964;-44
2022/10/11 03:18:41;;;;;;;;;;;;;;;;;;2115012;28;19930;-44
2022/10/11 03:19:42;;;;;;;;;;;;;;;;;;2114805;28;19919;-44
2022/10/11 03:20:42;;;;;;;;;;;;;;;;;;2114767;28;19920;-44
2022/10/11 03:21:43;;;;;;;;;;;;;;;;;;2114791;28;19968;-44
2022/10/11 03:22:44;;;;;;;;;;;;;;;;;;2114722;28;19951;-44
2022/10/11 03:23:45;;;;;;;;;;;;;;;;;;2114737;28;20016;-44
2022/10/11 03:24:46;;;;;;;;;;;;;;;;;;2114710;28;19919;-44
2022/10/11 03:25:47;;;;;;;;;;;;;;;;;;2114818;28;19959;-44
2022/10/11 03:26:47;;;;;;;;;;;;;;;;;;2114717;28;20364;-46
2022/10/11 03:27:48;;;;;;;;;;;;;;;;;;2114797;28;19920;-44
2022/10/11 03:28:49;;;;;;;;;;;;;;;;;;2114802;28;19924;-44
2022/10/11 03:29:50;;;;;;;;;;;;;;;;;;2114719;28;20020;-44
2022/10/11 03:30:51;;;;;;;;;;;;;;;;;;2114757;28;19965;-44
2022/10/11 03:31:52;;;;;;;;;;;;;;;;;;2114808;28;19919;-44
2022/10/11 03:32:53;;;;;;;;;;;;;;;;;;2114905;28;19951;-44
2022/10/11 03:33:53;;;;;;;;;;;;;;;;;;2114785;28;20012;-44
2022/10/11 03:34:54;;;;;;;;;;;;;;;;;;2114859;28;19920;-44
2022/10/11 03:35:55;;;;;;;;;;;;;;;;;;2114749;28;20416;-44
2022/10/11 03:36:56;;;;;;;;;;;;;;;;;;2114769;28;20319;-44
2022/10/11 03:37:57;;;;;;;;;;;;;;;;;;2114704;28;19926;-44
2022/10/11 03:38:58;;;;;;;;;;;;;;;;;;2114643;28;19973;-44
2022/10/11 03:39:58;;;;;;;;;;;;;;;;;;2114841;28;19926;-44
2022/10/11 03:40:59;;;;;;;;;;;;;;;;;;2114723;28;20396;-44
2022/10/11 03:42:00;;;;;;;;;;;;;;;;;;2114599;28;19993;-44
2022/10/11 03:43:01;;;;;;;;;;;;;;;;;;2114585;28;19965;-44
2022/10/11 03:44:02;;;;;;;;;;;;;;;;;;2114713;28;19919;-44
2022/10/11 03:45:06;;;;;;;;;;;;;;;;;;2114621;28;20379;-44
2022/10/11 03:46:07;;;;;;;;;;;;;;;;;;2114664;28;19920;-44
2022/10/11 03:47:08;;;;;;;;;;;;;;;;;;2114633;28;19923;-44
2022/10/11 03:48:09;;;;;;;;;;;;;;;;;;2114575;28;19923;-44
2022/10/11 03:49:10;;;;;;;;;;;;;;;;;;2114620;28;19924;-44
2022/10/11 03:50:11;;;;;;;;;;;;;;;;;;2114799;28;20081;-44
2022/10/11 03:51:12;;;;;;;;;;;;;;;;;;2114761;28;20360;-44
2022/10/11 03:52:13;;;;;;;;;;;;;;;;;;2114539;28;19927;-44
2022/10/11 03:53:13;;;;;;;;;;;;;;;;;;2114776;28;19927;-44
2022/10/11 03:54:14;;;;;;;;;;;;;;;;;;2114548;28;19927;-44
2022/10/11 03:55:15;;;;;;;;;;;;;;;;;;2114743;28;19962;-44
2022/10/11 03:56:16;;;;;;;;;;;;;;;;;;2114613;28;19974;-44
2022/10/11 03:57:17;;;;;;;;;;;;;;;;;;2114590;28;19920;-44
2022/10/11 03:58:18;;;;;;;;;;;;;;;;;;2114591;28;20016;-45
2022/10/11 03:59:18;;;;;;;;;;;;;;;;;;2114749;28;19959;-44
2022/10/11 04:00:19;;;;;;;;;;;;;;;;;;2114707;28;19932;-44
2022/10/11 04:01:20;;;;;;;;;;;;;;;;;;2114831;28;20291;-44
2022/10/11 04:02:21;;;;;;;;;;;;;;;;;;2114494;28;19955;-44
2022/10/11 04:03:22;;;;;;;;;;;;;;;;;;2114423;28;19964;-44
2022/10/11 04:04:22;;;;;;;;;;;;;;;;;;2114594;28;19965;-44
2022/10/11 04:05:23;;;;;;;;;;;;;;;;;;2114525;28;19919;-44
2022/10/11 04:06:24;;;;;;;;;;;;;;;;;;2114543;28;19919;-44
2022/10/11 04:07:25;;;;;;;;;;;;;;;;;;2114515;28;19920;-44
2022/10/11 04:08:26;;;;;;;;;;;;;;;;;;2114571;28;20288;-44
2022/10/11 04:09:27;;;;;;;;;;;;;;;;;;2114511;28;19920;-44
2022/10/11 04:10:27;;;;;;;;;;;;;;;;;;2114534;28;19919;-44
2022/10/11 04:11:28;;;;;;;;;;;;;;;;;;2114592;28;19992;-44
2022/10/11 04:12:29;;;;;;;;;;;;;;;;;;2114524;28;19940;-44
2022/10/11 04:13:30;;;;;;;;;;;;;;;;;;2114643;28;19958;-44
2022/10/11 04:14:31;;;;;;;;;;;;;;;;;;2114528;28;19919;-44
2022/10/11 04:15:32;;;;;;;;;;;;;;;;;;2114678;28;20287;-44
2022/10/11 04:16:34;;;;;;;;;;;;;;;;;;2114478;28;19920;-44
2022/10/11 04:17:35;;;;;;;;;;;;;;;;;;2114581;28;19943;-44
2022/10/11 04:18:35;;;;;;;;;;;;;;;;;;2114476;28;20363;-44
2022/10/11 04:19:36;;;;;;;;;;;;;;;;;;2115269;28;20368;-44
2022/10/11 04:20:37;;;;;;;;;;;;;;;;;;2116203;28;20453;-44
2022/10/11 04:21:38;;;;;;;;;;;;;;;;;;2116027;28;19942;-44
2022/10/11 04:22:39;;;;;;;;;;;;;;;;;;2116067;28;20351;-44
2022/10/11 04:23:40;;;;;;;;;;;;;;;;;;2115783;28;19966;-44
2022/10/11 04:24:40;;;;;;;;;;;;;;;;;;2115926;28;19923;-44
2022/10/11 04:25:41;;;;;;;;;;;;;;;;;;2115916;28;19924;-44
2022/10/11 04:26:42;;;;;;;;;;;;;;;;;;2115958;28;19953;-44
2022/10/11 04:27:43;;;;;;;;;;;;;;;;;;2115872;28;20295;-44
2022/10/11 04:28:44;;;;;;;;;;;;;;;;;;2115923;28;19919;-44
2022/10/11 04:29:45;;;;;;;;;;;;;;;;;;2115814;28;19939;-44
2022/10/11 04:30:45;;;;;;;;;;;;;;;;;;2115867;28;19919;-44
2022/10/11 04:31:46;;;;;;;;;;;;;;;;;;2115855;28;19926;-44
2022/10/11 04:32:47;;;;;;;;;;;;;;;;;;2115766;28;19926;-44
2022/10/11 04:33:48;;;;;;;;;;;;;;;;;;2116012;28;20018;-44
2022/10/11 04:34:49;;;;;;;;;;;;;;;;;;2115866;28;20010;-44
2022/10/11 04:35:50;;;;;;;;;;;;;;;;;;2115945;28;20372;-44
2022/10/11 04:36:51;;;;;;;;;;;;;;;;;;2115915;28;20044;-44
2022/10/11 04:37:52;;;;;;;;;;;;;;;;;;2115878;28;20367;-43
2022/10/11 04:38:55;;;;;;;;;;;;;;;;;;2115847;28;19920;-44
2022/10/11 04:39:55;;;;;;;;;;;;;;;;;;2115962;28;19927;-44
2022/10/11 04:40:56;;;;;;;;;;;;;;;;;;2115833;28;20299;-44
2022/10/11 04:41:58;;;;;;;;;;;;;;;;;;2115709;28;19920;-44
2022/10/11 04:42:59;;;;;;;;;;;;;;;;;;2115800;28;19920;-44
2022/10/11 04:44:00;;;;;;;;;;;;;;;;;;2115752;28;19931;-44
2022/10/11 04:45:01;;;;;;;;;;;;;;;;;;2115901;28;19919;-44
2022/10/11 04:46:02;;;;;;;;;;;;;;;;;;2115888;28;20443;-44
2022/10/11 04:47:02;;;;;;;;;;;;;;;;;;2115835;28;19920;-44
2022/10/11 04:48:03;;;;;;;;;;;;;;;;;;2115790;28;19920;-44
2022/10/11 04:49:05;;;;;;;;;;;;;;;;;;2115752;28;19928;-44
2022/10/11 04:50:05;;;;;;;;;;;;;;;;;;2115787;28;19921;-44
2022/10/11 04:51:06;;;;;;;;;;;;;;;;;;2115743;28;19931;-44
2022/10/11 04:52:07;;;;;;;;;;;;;;;;;;2115710;28;19924;-44
2022/10/11 04:53:08;;;;;;;;;;;;;;;;;;2115717;28;19920;-44
2022/10/11 04:54:09;;;;;;;;;;;;;;;;;;2115684;28;19935;-44
2022/10/11 04:55:10;;;;;;;;;;;;;;;;;;2115755;28;19984;-44
2022/10/11 04:56:10;;;;;;;;;;;;;;;;;;2115817;28;20305;-44
2022/10/11 04:57:11;;;;;;;;;;;;;;;;;;2115556;28;19975;-43
2022/10/11 04:58:12;;;;;;;;;;;;;;;;;;2115698;28;19923;-44
2022/10/11 04:59:13;;;;;;;;;;;;;;;;;;2115749;28;19923;-44
2022/10/11 05:00:14;;;;;;;;;;;;;;;;;;2115769;28;19919;-44
2022/10/11 05:01:15;;;;;;;;;;;;;;;;;;2115627;28;19919;-44
2022/10/11 05:02:16;;;;;;;;;;;;;;;;;;2115600;28;19926;-44
2022/10/11 05:03:17;;;;;;;;;;;;;;;;;;2115578;28;19920;-44
2022/10/11 05:04:18;;;;;;;;;;;;;;;;;;2115674;28;19920;-45
2022/10/11 05:05:19;;;;;;;;;;;;;;;;;;2115810;28;20276;-45
2022/10/11 05:06:19;;;;;;;;;;;;;;;;;;2115671;28;20124;-45
2022/10/11 05:07:20;;;;;;;;;;;;;;;;;;2115829;28;19924;-45
2022/10/11 05:08:22;;;;;;;;;;;;;;;;;;2115646;28;19920;-44
2022/10/11 05:09:23;;;;;;;;;;;;;;;;;;2115914;28;19920;-51
2022/10/11 05:10:23;;;;;;;;;;;;;;;;;;2115581;28;19939;-51
2022/10/11 05:11:24;;;;;;;;;;;;;;;;;;2115725;28;20022;-51
2022/10/11 05:12:25;;;;;;;;;;;;;;;;;;2115584;28;19920;-52
2022/10/11 05:13:26;;;;;;;;;;;;;;;;;;2115818;28;19919;-45
2022/10/11 05:14:27;;;;;;;;;;;;;;;;;;2115722;28;19920;-45
2022/10/11 05:15:28;;;;;;;;;;;;;;;;;;2115781;28;19920;-52
2022/10/11 05:16:28;;;;;;;;;;;;;;;;;;2115651;28;20004;-51
2022/10/11 05:17:29;;;;;;;;;;;;;;;;;;2115586;28;20412;-51
2022/10/11 05:18:30;;;;;;;;;;;;;;;;;;2115514;28;19930;-51
2022/10/11 05:19:31;;;;;;;;;;;;;;;;;;2115573;28;19947;-53
2022/10/11 05:20:32;;;;;;;;;;;;;;;;;;2115825;28;20394;-50
2022/10/11 05:21:33;;;;;;;;;;;;;;;;;;2115505;28;20052;-52
2022/10/11 05:22:33;;;;;;;;;;;;;;;;;;2115690;28;20340;-54
2022/10/11 05:23:34;;;;;;;;;;;;;;;;;;2115434;28;19926;-53
2022/10/11 05:24:35;;;;;;;;;;;;;;;;;;2115490;28;19969;-54
2022/10/11 05:25:36;;;;;;;;;;;;;;;;;;2115640;28;19920;-53
2022/10/11 05:26:36;;;;;;;;;;;;;;;;;;2115408;28;19926;-53
2022/10/11 05:27:37;;;;;;;;;;;;;;;;;;2115610;28;20421;-52
2022/10/11 05:28:38;;;;;;;;;;;;;;;;;;2115499;28;20329;-53
2022/10/11 05:29:39;;;;;;;;;;;;;;;;;;2115667;28;20010;-54
2022/10/11 05:30:40;;;;;;;;;;;;;;;;;;2115500;28;19949;-53
2022/10/11 05:31:41;;;;;;;;;;;;;;;;;;2115544;28;20014;-54
2022/10/11 05:32:41;;;;;;;;;;;;;;;;;;2115447;28;19949;-55
2022/10/11 05:33:42;;;;;;;;;;;;;;;;;;2115590;28;19920;-54
2022/10/11 05:34:43;;;;;;;;;;;;;;;;;;2115635;28;19923;-54
2022/10/11 05:35:44;;;;;;;;;;;;;;;;;;2115385;28;19966;-54
2022/10/11 05:36:45;;;;;;;;;;;;;;;;;;2115389;28;19967;-54
2022/10/11 05:37:46;;;;;;;;;;;;;;;;;;2115468;28;20018;-54
2022/10/11 05:38:46;;;;;;;;;;;;;;;;;;2115427;28;19919;-54
2022/10/11 05:39:47;;;;;;;;;;;;;;;;;;2115501;28;20025;-54
2022/10/11 05:40:48;;;;;;;;;;;;;;;;;;2115631;28;19923;-54
2022/10/11 05:41:50;;;;;;;;;;;;;;;;;;2115421;28;20276;-53
2022/10/11 05:42:51;;;;;;;;;;;;;;;;;;2115404;28;19919;-54
2022/10/11 05:43:52;;;;;;;;;;;;;;;;;;2115314;28;19920;-55
2022/10/11 05:44:53;;;;;;;;;;;;;;;;;;2115341;28;19919;-54
2022/10/11 05:45:54;;;;;;;;;;;;;;;;;;2115568;28;19920;-55
2022/10/11 05:46:54;;;;;;;;;;;;;;;;;;2115255;28;19969;-54
2022/10/11 05:47:55;;;;;;;;;;;;;;;;;;2115354;28;19978;-54
2022/10/11 05:48:56;;;;;;;;;;;;;;;;;;2115435;28;19926;-54
2022/10/11 05:49:57;;;;;;;;;;;;;;;;;;2115503;28;20284;-54
2022/10/11 05:50:58;;;;;;;;;;;;;;;;;;2115412;28;19926;-53
2022/10/11 05:51:58;;;;;;;;;;;;;;;;;;2115402;28;20015;-54
2022/10/11 05:52:59;;;;;;;;;;;;;;;;;;2115354;28;19948;-55
2022/10/11 05:54:00;;;;;;;;;;;;;;;;;;2115428;28;19973;-52
2022/10/11 05:55:02;;;;;;;;;;;;;;;;;;2115430;28;19973;-54
2022/10/11 05:56:03;;;;;;;;;;;;;;;;;;2115305;28;19924;-53
2022/10/11 05:57:04;;;;;;;;;;;;;;;;;;2115215;28;20327;-53
2022/10/11 05:58:05;;;;;;;;;;;;;;;;;;2115309;28;19923;-52
2022/10/11 05:59:05;;;;;;;;;;;;;;;;;;2115474;28;19926;-51
2022/10/11 06:00:06;;;;;;;;;;;;;;;;;;2115306;28;19977;-52
2022/10/11 06:01:07;;;;;;;;;;;;;;;;;;2115270;28;19926;-52
2022/10/11 06:02:08;;;;;;;;;;;;;;;;;;2115292;28;19924;-53
2022/10/11 06:03:09;;;;;;;;;;;;;;;;;;2115192;28;19984;-54
2022/10/11 06:04:10;;;;;;;;;;;;;;;;;;2115238;28;19930;-54
2022/10/11 06:05:11;;;;;;;;;;;;;;;;;;2115371;28;19965;-52
2022/10/11 06:06:12;;;;;;;;;;;;;;;;;;2115357;28;19919;-54
2022/10/11 06:07:13;;;;;;;;;;;;;;;;;;2115157;28;20283;-53
2022/10/11 06:08:14;;;;;;;;;;;;;;;;;;2115395;28;20425;-54
2022/10/11 06:09:15;;;;;;;;;;;;;;;;;;2115246;28;19965;-52
2022/10/11 06:10:16;;;;;;;;;;;;;;;;;;2115257;28;19964;-52
2022/10/11 06:11:17;;;;;;;;;;;;;;;;;;2115327;28;19919;-54
2022/10/11 06:12:17;;;;;;;;;;;;;;;;;;2115241;28;19927;-54
2022/10/11 06:13:18;;;;;;;;;;;;;;;;;;2115254;28;19927;-53
2022/10/11 06:14:19;;;;;;;;;;;;;;;;;;2115396;28;19973;-54
2022/10/11 06:15:20;;;;;;;;;;;;;;;;;;2115289;28;19951;-53
2022/10/11 06:16:21;;;;;;;;;;;;;;;;;;2115110;28;20429;-54
2022/10/11 06:17:23;;;;;;;;;;;;;;;;;;2115066;28;19965;-53
2022/10/11 06:18:23;;;;;;;;;;;;;;;;;;2115132;28;19942;-53
2022/10/11 06:19:24;;;;;;;;;;;;;;;;;;2115217;28;19921;-53
2022/10/11 06:20:25;;;;;;;;;;;;;;;;;;2115219;28;19919;-54
2022/10/11 06:21:26;;;;;;;;;;;;;;;;;;2115266;28;19919;-53
2022/10/11 06:22:26;;;;;;;;;;;;;;;;;;2115115;28;20277;-53
2022/10/11 06:23:27;;;;;;;;;;;;;;;;;;2115066;28;20295;-53
2022/10/11 06:24:28;;;;;;;;;;;;;;;;;;2115121;28;20006;-51
2022/10/11 06:25:29;;;;;;;;;;;;;;;;;;2115148;28;19920;-53
2022/10/11 06:26:30;;;;;;;;;;;;;;;;;;2115203;28;19924;-54
2022/10/11 06:27:31;;;;;;;;;;;;;;;;;;2115262;28;19920;-54
2022/10/11 06:28:32;;;;;;;;;;;;;;;;;;2115176;28;19924;-52
2022/10/11 06:29:32;;;;;;;;;;;;;;;;;;2115067;28;20448;-52
2022/10/11 06:30:33;;;;;;;;;;;;;;;;;;2115087;28;19969;-54
2022/10/11 06:31:34;;;;;;;;;;;;;;;;;;2115094;28;19959;-53
2022/10/11 06:32:35;;;;;;;;;;;;;;;;;;2115078;28;20390;-54
2022/10/11 06:33:36;;;;;;;;;;;;;;;;;;2115136;28;19941;-51
2022/10/11 06:34:37;;;;;;;;;;;;;;;;;;2115096;28;20271;-52
2022/10/11 06:35:37;;;;;;;;;;;;;;;;;;2115216;28;19919;-53
2022/10/11 06:36:38;;;;;;;;;;;;;;;;;;2114932;28;19970;-53
2022/10/11 06:37:39;;;;;;;;;;;;;;;;;;2115066;28;19919;-53
2022/10/11 06:38:40;;;;;;;;;;;;;;;;;;2115010;28;19930;-51
2022/10/11 06:39:45;;;;;;;;;;;;;;;;;;2115067;28;20368;-52
2022/10/11 06:40:46;;;;;;;;;;;;;;;;;;2115061;28;19926;-52
2022/10/11 06:41:47;;;;;;;;;;;;;;;;;;2115115;28;19920;-51
2022/10/11 06:42:48;;;;;;;;;;;;;;;;;;2114598;28;20388;-53
2022/10/11 06:43:49;;;;;;;;;;;;;;;;;;2114950;28;20020;-53
2022/10/11 06:44:49;;;;;;;;;;;;;;;;;;2115096;28;19919;-51
2022/10/11 06:45:50;;;;;;;;;;;;;;;;;;2114966;28;19989;-51
2022/10/11 06:46:51;;;;;;;;;;;;;;;;;;2114949;28;19920;-53
2022/10/11 06:47:52;;;;;;;;;;;;;;;;;;2115191;28;19955;-55
2022/10/11 06:48:53;;;;;;;;;;;;;;;;;;2115172;28;20297;-54
2022/10/11 06:49:54;;;;;;;;;;;;;;;;;;2114983;28;19966;-55
2022/10/11 06:50:54;;;;;;;;;;;;;;;;;;2115089;28;19920;-55
2022/10/11 06:52:00;;;;;;;;;;;;;;;;;;2114922;28;19930;-55
2022/10/11 06:53:01;;;;;;;;;;;;;;;;;;2114948;28;20014;-55
2022/10/11 06:54:02;;;;;;;;;;;;;;;;;;2114983;28;19959;-55
2022/10/11 06:55:03;;;;;;;;;;;;;;;;;;2115007;28;20326;-54
2022/10/11 06:56:04;;;;;;;;;;;;;;;;;;2115056;28;19920;-55